createdAt,value
2023-05-04T00:00:44.202Z,17.14
2023-05-04T00:01:44.156Z,16.81
2023-05-04T00:02:44.272Z,17.08
2023-05-04T00:03:44.321Z,16.74
2023-05-04T00:04:44.185Z,16.68
2023-05-04T00:05:44.206Z,16.68
2023-05-04T00:06:44.227Z,16.71
2023-05-04T00:07:44.271Z,16.52
2023-05-04T00:08:44.270Z,16.27
2023-05-04T00:09:44.291Z,16.36
2023-05-04T00:10:44.288Z,16.40
2023-05-04T00:11:44.325Z,16.39
2023-05-04T00:12:44.434Z,16.02
2023-05-04T00:13:44.354Z,15.90
2023-05-04T00:14:44.431Z,16.08
2023-05-04T00:15:44.441Z,15.83
2023-05-04T00:16:44.530Z,16.31
2023-05-04T00:17:44.474Z,15.97
2023-05-04T00:18:44.451Z,15.74
2023-05-04T00:19:44.450Z,15.77
2023-05-04T00:20:44.489Z,15.45
2023-05-04T00:21:44.504Z,15.63
2023-05-04T00:22:44.454Z,15.11
2023-05-04T00:23:44.474Z,15.43
2023-05-04T00:24:44.510Z,15.31
2023-05-04T00:25:44.505Z,15.17
2023-05-04T00:26:44.516Z,15.01
2023-05-04T00:27:44.495Z,15.17
2023-05-04T00:28:44.524Z,15.29
2023-05-04T00:29:44.511Z,15.43
2023-05-04T00:30:44.558Z,15.00
2023-05-04T00:31:44.587Z,14.75
2023-05-04T00:32:44.611Z,14.93
2023-05-04T00:33:44.566Z,14.74
2023-05-04T00:34:44.587Z,14.86
2023-05-04T00:35:44.601Z,14.76
2023-05-04T00:36:44.623Z,14.68
2023-05-04T00:37:44.638Z,14.69
2023-05-04T00:38:44.641Z,14.55
2023-05-04T00:39:44.679Z,14.73
2023-05-04T00:40:44.700Z,14.07
2023-05-04T00:41:44.748Z,14.56
2023-05-04T00:42:44.758Z,14.42
2023-05-04T00:43:44.781Z,14.35
2023-05-04T00:44:44.753Z,14.19
2023-05-04T00:45:44.780Z,14.04
2023-05-04T00:46:45.245Z,13.81
2023-05-04T00:47:44.856Z,14.11
2023-05-04T00:48:44.793Z,13.91
2023-05-04T00:49:44.828Z,13.81
2023-05-04T00:50:44.865Z,13.86
2023-05-04T00:51:44.852Z,13.67
2023-05-04T00:52:44.869Z,13.69
2023-05-04T00:53:44.861Z,13.68
2023-05-04T00:54:44.868Z,13.58
2023-05-04T00:55:44.872Z,13.69
2023-05-04T00:56:44.919Z,13.39
2023-05-04T00:57:44.969Z,13.48
2023-05-04T00:58:44.934Z,13.64
2023-05-04T00:59:44.945Z,13.03
2023-05-04T01:00:45.007Z,13.46
2023-05-04T01:01:44.982Z,13.42
2023-05-04T01:02:45.038Z,12.85
2023-05-04T01:03:45.059Z,13.08
2023-05-04T01:04:45.018Z,13.11
2023-05-04T01:05:45.017Z,13.02
2023-05-04T01:06:45.734Z,12.84
2023-05-04T01:07:45.066Z,12.80
2023-05-04T01:08:45.065Z,12.66
2023-05-04T01:09:45.086Z,12.78
2023-05-04T01:10:45.119Z,12.79
2023-05-04T01:11:45.122Z,12.72
2023-05-04T01:12:45.170Z,12.50
2023-05-04T01:13:45.173Z,12.40
2023-05-04T01:14:45.138Z,12.22
2023-05-04T01:15:45.161Z,12.36
2023-05-04T01:16:45.237Z,12.44
2023-05-04T01:17:45.206Z,12.26
2023-05-04T01:18:45.209Z,12.26
2023-05-04T01:19:45.239Z,12.35
2023-05-04T01:20:45.264Z,12.11
2023-05-04T01:21:45.246Z,12.23
2023-05-04T01:22:45.279Z,12.35
2023-05-04T01:23:45.284Z,12.21
2023-05-04T01:24:45.328Z,12.06
2023-05-04T01:25:45.331Z,12.33
2023-05-04T01:26:45.356Z,12.00
2023-05-04T01:27:45.422Z,11.76
2023-05-04T01:28:45.362Z,11.73
2023-05-04T01:29:45.394Z,11.87
2023-05-04T01:30:45.443Z,11.85
2023-05-04T01:31:45.432Z,11.85
2023-05-04T01:32:45.448Z,11.57
2023-05-04T01:33:45.450Z,11.55
2023-05-04T01:34:45.462Z,11.65
2023-05-04T01:35:45.471Z,11.52
2023-05-04T01:36:45.747Z,11.49
2023-05-04T01:37:45.517Z,11.36
2023-05-04T01:38:45.569Z,11.58
2023-05-04T01:39:45.576Z,11.41
2023-05-04T01:40:45.578Z,11.40
2023-05-04T01:41:45.624Z,11.22
2023-05-04T01:42:45.846Z,11.17
2023-05-04T01:43:45.624Z,11.09
2023-05-04T01:44:45.657Z,11.37
2023-05-04T01:45:45.698Z,11.14
2023-05-04T01:46:45.745Z,11.03
2023-05-04T01:47:45.848Z,11.02
2023-05-04T01:48:45.782Z,11.27
2023-05-04T01:49:45.796Z,10.97
2023-05-04T01:50:45.900Z,10.81
2023-05-04T01:51:45.845Z,10.66
2023-05-04T01:52:45.906Z,10.98
2023-05-04T01:53:45.923Z,10.74
2023-05-04T01:54:45.935Z,10.68
2023-05-04T01:55:45.953Z,10.82
2023-05-04T01:56:45.996Z,10.65
2023-05-04T01:57:45.984Z,10.74
2023-05-04T01:58:46.018Z,10.59
2023-05-04T01:59:46.036Z,10.54
2023-05-04T02:00:46.059Z,10.47
2023-05-04T02:01:46.099Z,10.54
2023-05-04T02:02:46.176Z,10.70
2023-05-04T02:03:46.154Z,10.41
2023-05-04T02:04:46.125Z,10.20
2023-05-04T02:05:46.173Z,10.40
2023-05-04T02:06:46.251Z,10.52
2023-05-04T02:07:46.180Z,10.25
2023-05-04T02:08:46.193Z,10.34
2023-05-04T02:09:46.196Z,10.19
2023-05-04T02:10:46.204Z,10.28
2023-05-04T02:11:46.247Z,10.14
2023-05-04T02:12:46.410Z,10.18
2023-05-04T02:13:46.253Z,9.93
2023-05-04T02:14:46.337Z,9.84
2023-05-04T02:15:46.373Z,10.00
2023-05-04T02:16:46.344Z,9.90
2023-05-04T02:17:46.553Z,9.79
2023-05-04T02:18:46.346Z,9.74
2023-05-04T02:19:46.364Z,9.85
2023-05-04T02:20:46.436Z,9.86
2023-05-04T02:21:46.435Z,9.64
2023-05-04T02:22:46.460Z,9.61
2023-05-04T02:23:46.489Z,9.65
2023-05-04T02:24:46.492Z,9.60
2023-05-04T02:25:46.478Z,9.67
2023-05-04T02:26:46.495Z,9.68
2023-05-04T02:27:46.510Z,9.58
2023-05-04T02:28:46.540Z,9.68
2023-05-04T02:29:46.543Z,9.44
2023-05-04T02:30:46.543Z,9.57
2023-05-04T02:31:47.365Z,9.53
2023-05-04T02:32:46.621Z,9.51
2023-05-04T02:33:46.635Z,9.37
2023-05-04T02:34:46.592Z,9.46
2023-05-04T02:35:46.608Z,9.41
2023-05-04T02:36:46.588Z,9.37
2023-05-04T02:37:46.609Z,9.21
2023-05-04T02:38:46.675Z,9.33
2023-05-04T02:39:46.663Z,9.20
2023-05-04T02:40:46.647Z,9.16
2023-05-04T02:41:46.652Z,9.25
2023-05-04T02:42:46.694Z,9.08
2023-05-04T02:43:46.657Z,9.17
2023-05-04T02:44:46.700Z,9.01
2023-05-04T02:45:46.708Z,9.01
2023-05-04T02:46:46.707Z,9.02
2023-05-04T02:47:46.784Z,8.95
2023-05-04T02:48:46.712Z,8.95
2023-05-04T02:49:46.816Z,8.90
2023-05-04T02:50:46.787Z,8.89
2023-05-04T02:51:47.323Z,9.02
2023-05-04T02:52:46.789Z,8.83
2023-05-04T02:53:46.820Z,8.95
2023-05-04T02:54:46.811Z,9.04
2023-05-04T02:55:46.798Z,8.75
2023-05-04T02:56:46.855Z,8.83
2023-05-04T02:57:47.791Z,8.56
2023-05-04T02:58:46.867Z,8.61
2023-05-04T02:59:46.878Z,8.42
2023-05-04T03:00:46.837Z,8.64
2023-05-04T03:01:46.942Z,8.56
2023-05-04T03:02:46.946Z,8.70
2023-05-04T03:03:46.931Z,8.51
2023-05-04T03:04:46.961Z,8.28
2023-05-04T03:05:46.970Z,8.65
2023-05-04T03:06:47.050Z,8.39
2023-05-04T03:07:47.011Z,8.57
2023-05-04T03:08:47.076Z,8.43
2023-05-04T03:09:48.070Z,8.38
2023-05-04T03:10:47.075Z,8.30
2023-05-04T03:11:47.060Z,8.35
2023-05-04T03:12:47.147Z,8.28
2023-05-04T03:13:47.115Z,8.31
2023-05-04T03:14:47.147Z,8.29
2023-05-04T03:15:47.156Z,8.31
2023-05-04T03:16:47.276Z,8.16
2023-05-04T03:17:47.219Z,8.33
2023-05-04T03:18:57.967Z,8.20
2023-05-04T03:19:47.247Z,8.23
2023-05-04T03:20:47.192Z,8.26
2023-05-04T03:21:47.229Z,8.28
2023-05-04T03:22:47.194Z,8.31
2023-05-04T03:23:47.202Z,8.21
2023-05-04T03:24:47.144Z,8.25
2023-05-04T03:25:47.177Z,8.27
2023-05-04T03:26:47.199Z,8.13
2023-05-04T03:27:47.170Z,8.10
2023-05-04T03:28:47.146Z,8.06
2023-05-04T03:29:47.155Z,8.05
2023-05-04T03:30:47.126Z,8.03
2023-05-04T03:31:47.134Z,7.95
2023-05-04T03:32:47.128Z,7.82
2023-05-04T03:33:47.086Z,7.87
2023-05-04T03:34:47.104Z,7.83
2023-05-04T03:35:47.122Z,7.81
2023-05-04T03:36:47.091Z,7.84
2023-05-04T03:37:47.067Z,7.97
2023-05-04T03:38:47.067Z,7.63
2023-05-04T03:39:47.103Z,7.83
2023-05-04T03:40:47.071Z,7.58
2023-05-04T03:41:47.034Z,7.68
2023-05-04T03:42:47.037Z,7.72
2023-05-04T03:43:47.065Z,7.75
2023-05-04T03:44:47.038Z,7.62
2023-05-04T03:45:47.156Z,7.55
2023-05-04T03:46:47.119Z,7.72
2023-05-04T03:47:47.155Z,7.49
2023-05-04T03:48:47.150Z,7.61
2023-05-04T03:49:47.151Z,7.43
2023-05-04T03:50:47.195Z,7.60
2023-05-04T03:51:47.213Z,7.39
2023-05-04T03:52:47.238Z,7.46
2023-05-04T03:53:47.245Z,7.50
2023-05-04T03:54:47.254Z,7.38
2023-05-04T03:55:47.285Z,7.32
2023-05-04T03:56:47.300Z,7.40
2023-05-04T03:57:47.362Z,7.44
2023-05-04T03:58:47.345Z,7.33
2023-05-04T03:59:47.358Z,7.37
2023-05-04T04:00:47.379Z,7.28
2023-05-04T04:01:47.407Z,7.39
2023-05-04T04:02:47.512Z,7.21
2023-05-04T04:03:47.489Z,7.22
2023-05-04T04:04:47.455Z,7.20
2023-05-04T04:05:47.472Z,7.31
2023-05-04T04:06:47.442Z,7.24
2023-05-04T04:07:47.511Z,7.08
2023-05-04T04:08:47.476Z,7.03
2023-05-04T04:09:47.498Z,7.16
2023-05-04T04:10:47.559Z,7.08
2023-05-04T04:11:47.568Z,7.22
2023-05-04T04:12:47.664Z,7.02
2023-05-04T04:13:47.667Z,7.11
2023-05-04T04:14:47.633Z,7.01
2023-05-04T04:15:47.671Z,7.08
2023-05-04T04:16:47.690Z,7.03
2023-05-04T04:17:47.855Z,7.08
2023-05-04T04:18:47.747Z,6.93
2023-05-04T04:19:47.764Z,6.78
2023-05-04T04:20:47.785Z,7.06
2023-05-04T04:21:47.823Z,6.99
2023-05-04T04:22:47.895Z,6.80
2023-05-04T04:23:47.920Z,6.90
2023-05-04T04:24:47.913Z,6.75
2023-05-04T04:25:48.016Z,6.87
2023-05-04T04:26:48.031Z,6.77
2023-05-04T04:27:48.020Z,6.75
2023-05-04T04:28:48.048Z,6.75
2023-05-04T04:29:48.072Z,6.82
2023-05-04T04:30:48.096Z,6.81
2023-05-04T04:31:48.352Z,6.70
2023-05-04T04:32:48.187Z,6.76
2023-05-04T04:33:48.167Z,6.71
2023-05-04T04:34:48.228Z,6.62
2023-05-04T04:35:48.248Z,6.70
2023-05-04T04:36:48.302Z,6.66
2023-05-04T04:37:48.317Z,6.57
2023-05-04T04:38:48.325Z,6.58
2023-05-04T04:39:48.359Z,6.64
2023-05-04T04:40:48.414Z,6.65
2023-05-04T04:41:48.414Z,6.53
2023-05-04T04:42:48.464Z,6.45
2023-05-04T04:43:48.478Z,6.50
2023-05-04T04:44:48.604Z,6.52
2023-05-04T04:45:48.528Z,6.36
2023-05-04T04:46:48.644Z,6.33
2023-05-04T04:47:48.626Z,6.51
2023-05-04T04:48:48.631Z,6.50
2023-05-04T04:49:48.697Z,6.59
2023-05-04T04:50:48.710Z,6.38
2023-05-04T04:51:48.747Z,6.35
2023-05-04T04:52:48.764Z,6.29
2023-05-04T04:53:48.822Z,6.32
2023-05-04T04:54:48.829Z,6.24
2023-05-04T04:55:48.924Z,6.16
2023-05-04T04:56:48.939Z,6.22
2023-05-04T04:57:48.996Z,6.17
2023-05-04T04:58:48.983Z,6.16
2023-05-04T04:59:49.044Z,5.96
2023-05-04T05:00:49.196Z,6.03
2023-05-04T05:01:49.124Z,5.91
2023-05-04T05:02:49.178Z,6.05
2023-05-04T05:03:49.238Z,5.97
2023-05-04T05:04:49.382Z,5.90
2023-05-04T05:05:49.244Z,5.92
2023-05-04T05:06:49.310Z,5.82
2023-05-04T05:07:49.322Z,5.79
2023-05-04T05:08:49.354Z,5.73
2023-05-04T05:09:49.377Z,5.76
2023-05-04T05:10:49.384Z,5.69
2023-05-04T05:11:49.468Z,5.45
2023-05-04T05:12:49.849Z,5.54
2023-05-04T05:13:49.457Z,5.48
2023-05-04T05:14:49.517Z,5.42
2023-05-04T05:15:49.485Z,5.33
2023-05-04T05:16:49.611Z,5.28
2023-05-04T05:17:49.659Z,5.29
2023-05-04T05:18:49.601Z,5.15
2023-05-04T05:19:49.609Z,5.13
2023-05-04T05:20:49.638Z,5.14
2023-05-04T05:21:49.645Z,4.98
2023-05-04T05:22:49.670Z,5.00
2023-05-04T05:23:49.745Z,4.90
2023-05-04T05:24:49.756Z,4.85
2023-05-04T05:25:49.788Z,4.91
2023-05-04T05:26:49.853Z,4.86
2023-05-04T05:27:49.890Z,4.76
2023-05-04T05:28:49.872Z,4.62
2023-05-04T05:29:49.881Z,4.82
2023-05-04T05:30:50.009Z,4.87
2023-05-04T05:31:50.093Z,4.99
2023-05-04T05:32:50.000Z,5.19
2023-05-04T05:33:50.073Z,6.85
2023-05-04T05:34:50.143Z,7.24
2023-05-04T05:35:50.396Z,7.35
2023-05-04T05:36:50.155Z,6.76
2023-05-04T05:37:50.864Z,6.84
2023-05-04T05:38:50.478Z,7.18
2023-05-04T05:39:50.240Z,6.97
2023-05-04T05:40:50.326Z,6.46
2023-05-04T05:41:50.383Z,5.90
2023-05-04T05:42:50.474Z,5.91
2023-05-04T05:43:50.421Z,5.98
2023-05-04T05:44:50.446Z,6.05
2023-05-04T05:45:50.538Z,6.08
2023-05-04T05:46:50.540Z,5.72
2023-05-04T05:47:50.597Z,5.77
2023-05-04T05:48:50.659Z,5.88
2023-05-04T05:49:50.738Z,5.87
2023-05-04T05:50:50.763Z,5.52
2023-05-04T05:51:50.852Z,5.37
2023-05-04T05:52:50.894Z,5.22
2023-05-04T05:53:50.960Z,5.25
2023-05-04T05:54:50.970Z,5.33
2023-05-04T05:55:51.081Z,5.47
2023-05-04T05:56:51.123Z,5.41
2023-05-04T05:57:51.849Z,5.36
2023-05-04T05:58:51.202Z,5.22
2023-05-04T05:59:51.445Z,5.38
2023-05-04T06:00:51.283Z,5.24
2023-05-04T06:01:51.352Z,5.55
2023-05-04T06:02:51.494Z,5.42
2023-05-04T06:03:51.655Z,5.27
2023-05-04T06:04:51.612Z,5.18
2023-05-04T06:05:51.619Z,5.33
2023-05-04T06:06:51.617Z,5.22
2023-05-04T06:07:52.393Z,5.10
2023-05-04T06:08:51.684Z,4.96
2023-05-04T06:09:51.763Z,5.19
2023-05-04T06:10:51.736Z,5.12
2023-05-04T06:11:53.344Z,5.04
2023-05-04T06:12:51.921Z,5.15
2023-05-04T06:13:51.796Z,5.20
2023-05-04T06:14:51.808Z,5.09
2023-05-04T06:15:51.919Z,5.00
2023-05-04T06:16:51.773Z,5.19
2023-05-04T06:17:51.799Z,5.13
2023-05-04T06:18:51.775Z,5.09
2023-05-04T06:19:51.744Z,5.12
2023-05-04T06:20:51.751Z,5.18
2023-05-04T06:21:51.844Z,5.09
2023-05-04T06:22:51.814Z,5.44
2023-05-04T06:23:51.713Z,5.38
2023-05-04T06:24:52.907Z,5.43
2023-05-04T06:25:51.697Z,5.44
2023-05-04T06:26:51.728Z,5.45
2023-05-04T06:27:51.689Z,5.44
2023-05-04T06:28:51.693Z,5.44
2023-05-04T06:29:51.761Z,5.40
2023-05-04T06:30:51.680Z,5.44
2023-05-04T06:31:52.401Z,5.38
2023-05-04T06:32:51.787Z,5.57
2023-05-04T06:33:51.788Z,5.50
2023-05-04T06:34:51.828Z,5.68
2023-05-04T06:35:51.813Z,5.90
2023-05-04T06:36:51.906Z,6.09
2023-05-04T06:37:52.453Z,6.35
2023-05-04T06:38:52.066Z,6.18
2023-05-04T06:39:51.964Z,6.32
2023-05-04T06:40:52.021Z,5.93
2023-05-04T06:41:52.012Z,5.98
2023-05-04T06:42:52.368Z,6.28
2023-05-04T06:43:52.023Z,6.37
2023-05-04T06:44:52.059Z,6.75
2023-05-04T06:45:52.154Z,6.51
2023-05-04T06:46:52.193Z,6.08
2023-05-04T06:47:52.289Z,6.06
2023-05-04T06:48:52.169Z,5.82
2023-05-04T06:49:52.245Z,5.68
2023-05-04T06:50:52.242Z,5.57
2023-05-04T06:51:52.290Z,5.61
2023-05-04T06:52:52.418Z,5.44
2023-05-04T06:53:52.393Z,5.35
2023-05-04T06:54:52.394Z,5.41
2023-05-04T06:55:52.721Z,5.45
2023-05-04T06:56:52.500Z,5.41
2023-05-04T06:57:52.499Z,5.26
2023-05-04T06:58:52.546Z,5.32
2023-05-04T06:59:52.615Z,5.36
2023-05-04T07:00:52.627Z,5.33
2023-05-04T07:01:52.653Z,5.36
2023-05-04T07:02:52.815Z,5.44
2023-05-04T07:03:52.876Z,5.33
2023-05-04T07:04:52.852Z,5.39
2023-05-04T07:05:53.389Z,5.26
2023-05-04T07:06:52.888Z,5.38
2023-05-04T07:07:52.944Z,5.38
2023-05-04T07:08:52.910Z,5.45
2023-05-04T07:09:53.063Z,5.58
2023-05-04T07:10:53.929Z,5.42
2023-05-04T07:11:52.994Z,5.45
2023-05-04T07:12:53.072Z,5.43
2023-05-04T07:13:53.089Z,5.48
2023-05-04T07:14:53.161Z,5.27
2023-05-04T07:15:53.165Z,5.45
2023-05-04T07:16:53.178Z,5.35
2023-05-04T07:17:53.284Z,5.29
2023-05-04T07:18:53.251Z,5.29
2023-05-04T07:19:53.372Z,4.95
2023-05-04T07:21:01.610Z,4.80
2023-05-04T07:21:54.368Z,4.80
2023-05-04T07:22:53.422Z,4.79
2023-05-04T07:23:53.313Z,4.70
2023-05-04T07:24:53.372Z,4.57
2023-05-04T07:25:53.802Z,4.62
2023-05-04T07:26:53.352Z,4.72
2023-05-04T07:27:53.318Z,4.34
2023-05-04T07:28:53.298Z,4.28
2023-05-04T07:29:53.510Z,4.45
2023-05-04T07:30:53.325Z,4.41
2023-05-04T07:31:53.312Z,4.58
2023-05-04T07:32:53.303Z,4.59
2023-05-04T07:33:53.332Z,4.79
2023-05-04T07:34:54.029Z,5.01
2023-05-04T07:35:53.399Z,5.27
2023-05-04T07:36:53.433Z,4.66
2023-05-04T07:37:53.983Z,4.11
2023-05-04T07:38:53.539Z,3.77
2023-05-04T07:39:53.537Z,3.61
2023-05-04T07:40:53.575Z,3.76
2023-05-04T07:41:53.628Z,3.81
2023-05-04T07:42:54.411Z,4.04
2023-05-04T07:43:53.708Z,4.42
2023-05-04T07:44:53.788Z,4.55
2023-05-04T07:45:53.865Z,4.58
2023-05-04T07:46:54.869Z,4.35
2023-05-04T07:47:53.911Z,4.27
2023-05-04T07:48:53.981Z,3.94
2023-05-04T07:49:53.970Z,4.01
2023-05-04T07:50:54.172Z,4.09
2023-05-04T07:51:54.009Z,3.72
2023-05-04T07:52:54.039Z,3.56
2023-05-04T07:53:54.076Z,3.53
2023-05-04T07:54:54.186Z,3.40
2023-05-04T07:55:54.160Z,3.39
2023-05-04T07:56:54.187Z,3.48
2023-05-04T07:57:54.284Z,3.39
2023-05-04T07:58:54.272Z,3.40
2023-05-04T07:59:54.321Z,3.35
2023-05-04T08:00:54.340Z,3.40
2023-05-04T08:01:54.489Z,3.35
2023-05-04T08:02:54.450Z,3.40
2023-05-04T08:03:54.519Z,3.43
2023-05-04T08:04:54.526Z,3.46
2023-05-04T08:05:54.549Z,3.35
2023-05-04T08:06:54.590Z,3.41
2023-05-04T08:07:54.650Z,3.57
2023-05-04T08:08:54.635Z,3.34
2023-05-04T08:09:54.663Z,3.32
2023-05-04T08:10:57.759Z,3.02
2023-05-04T08:11:55.677Z,3.02
2023-05-04T08:12:54.685Z,3.03
2023-05-04T08:13:54.901Z,3.11
2023-05-04T08:14:54.704Z,3.27
2023-05-04T08:15:54.668Z,3.40
2023-05-04T08:16:54.664Z,3.34
2023-05-04T08:17:54.677Z,3.26
2023-05-04T08:18:54.740Z,3.22
2023-05-04T08:19:55.462Z,3.32
2023-05-04T08:20:54.672Z,3.67
2023-05-04T08:21:54.677Z,4.02
2023-05-04T08:22:54.912Z,3.88
2023-05-04T08:23:54.596Z,4.02
2023-05-04T08:24:54.646Z,4.49
2023-05-04T08:25:54.592Z,5.59
2023-05-04T08:27:06.614Z,5.90
2023-05-04T08:27:55.895Z,5.92
2023-05-04T08:28:54.955Z,5.91
2023-05-04T08:29:54.599Z,5.01
2023-05-04T08:30:54.577Z,4.48
2023-05-04T08:31:54.616Z,4.41
2023-05-04T08:32:54.593Z,4.50
2023-05-04T08:33:54.560Z,4.18
2023-05-04T08:34:54.620Z,3.98
2023-05-04T08:35:54.538Z,4.12
2023-05-04T08:36:54.550Z,4.33
2023-05-04T08:37:54.926Z,4.25
2023-05-04T08:38:54.938Z,4.02
2023-05-04T08:39:54.496Z,3.56
2023-05-04T08:40:54.506Z,4.97
2023-05-04T08:41:54.502Z,7.06
2023-05-04T08:42:54.499Z,8.24
2023-05-04T08:43:54.569Z,8.50
2023-05-04T08:44:54.494Z,5.39
2023-05-04T08:45:54.469Z,4.69
2023-05-04T08:46:54.476Z,3.98
2023-05-04T08:47:55.008Z,3.90
2023-05-04T08:48:54.462Z,3.65
2023-05-04T08:49:54.423Z,3.41
2023-05-04T08:50:54.441Z,3.39
2023-05-04T08:51:54.440Z,3.15
2023-05-04T08:52:54.427Z,2.98
2023-05-04T08:53:54.439Z,3.33
2023-05-04T08:54:54.504Z,2.78
2023-05-04T08:55:54.489Z,2.35
2023-05-04T08:56:54.512Z,1.88
2023-05-04T08:57:54.932Z,1.56
2023-05-04T08:58:54.566Z,1.87
2023-05-04T08:59:54.537Z,2.07
2023-05-04T09:00:54.608Z,2.26
2023-05-04T09:01:54.680Z,2.07
2023-05-04T09:02:54.713Z,1.64
2023-05-04T09:03:54.719Z,1.45
2023-05-04T09:04:54.610Z,1.48
2023-05-04T09:05:54.638Z,1.41
2023-05-04T09:06:54.613Z,1.35
2023-05-04T09:07:54.707Z,1.54
2023-05-04T09:08:54.727Z,1.65
2023-05-04T09:09:54.744Z,1.22
2023-05-04T09:10:55.432Z,1.14
2023-05-04T09:11:54.845Z,0.91
2023-05-04T09:12:54.801Z,0.84
2023-05-04T09:13:54.851Z,0.88
2023-05-04T09:14:54.836Z,0.62
2023-05-04T09:15:54.936Z,0.58
2023-05-04T09:16:54.923Z,0.56
2023-05-04T09:17:57.632Z,0.64
2023-05-04T09:18:54.909Z,0.75
2023-05-04T09:19:54.864Z,1.01
2023-05-04T09:20:54.861Z,0.96
2023-05-04T09:21:54.867Z,0.76
2023-05-04T09:22:54.885Z,0.56
2023-05-04T09:23:54.874Z,0.51
2023-05-04T09:24:54.838Z,0.50
2023-05-04T09:25:54.849Z,0.53
2023-05-04T09:26:54.838Z,0.53
2023-05-04T09:27:54.847Z,0.55
2023-05-04T09:28:54.820Z,0.48
2023-05-04T09:29:54.816Z,0.52
2023-05-04T09:30:54.957Z,0.57
2023-05-04T09:31:54.808Z,0.54
2023-05-04T09:32:54.861Z,0.57
2023-05-04T09:33:54.794Z,0.73
2023-05-04T09:34:54.811Z,0.84
2023-05-04T09:35:54.775Z,1.09
2023-05-04T09:36:54.786Z,1.53
2023-05-04T09:37:54.758Z,2.12
2023-05-04T09:38:54.789Z,1.94
2023-05-04T09:39:54.750Z,2.36
2023-05-04T09:40:54.763Z,2.55
2023-05-04T09:41:54.797Z,2.51
2023-05-04T09:42:54.757Z,2.95
2023-05-04T09:43:54.722Z,2.80
2023-05-04T09:44:54.729Z,3.30
2023-05-04T09:45:54.750Z,3.00
2023-05-04T09:46:54.725Z,3.03
2023-05-04T09:47:54.972Z,2.71
2023-05-04T09:48:54.719Z,2.61
2023-05-04T09:49:54.708Z,2.58
2023-05-04T09:50:54.750Z,2.58
2023-05-04T09:51:54.706Z,3.18
2023-05-04T09:52:54.674Z,3.79
2023-05-04T09:53:54.691Z,3.67
2023-05-04T09:54:54.652Z,3.69
2023-05-04T09:55:54.681Z,4.00
2023-05-04T09:56:54.650Z,4.02
2023-05-04T09:57:54.625Z,4.63
2023-05-04T09:58:54.719Z,4.40
2023-05-04T09:59:54.650Z,4.47
2023-05-04T10:00:54.614Z,5.27
2023-05-04T10:01:54.658Z,5.79
2023-05-04T10:02:54.599Z,4.87
2023-05-04T10:03:54.629Z,5.11
2023-05-04T10:04:54.610Z,5.82
2023-05-04T10:05:54.609Z,5.53
2023-05-04T10:06:54.581Z,5.57
2023-05-04T10:07:54.596Z,5.49
2023-05-04T10:08:54.558Z,5.73
2023-05-04T10:09:54.582Z,5.31
2023-05-04T10:10:54.541Z,4.50
2023-05-04T10:11:55.448Z,3.94
2023-05-04T10:12:54.593Z,3.19
2023-05-04T10:13:54.568Z,3.01
2023-05-04T10:14:54.530Z,3.09
2023-05-04T10:15:54.559Z,2.90
2023-05-04T10:16:54.507Z,2.10
2023-05-04T10:17:54.566Z,2.10
2023-05-04T10:18:54.532Z,1.85
2023-05-04T10:19:54.490Z,2.01
2023-05-04T10:20:54.475Z,2.05
2023-05-04T10:21:54.508Z,2.49
2023-05-04T10:22:54.473Z,2.54
2023-05-04T10:23:54.538Z,2.97
2023-05-04T10:24:54.447Z,2.17
2023-05-04T10:25:54.431Z,2.02
2023-05-04T10:26:54.472Z,1.89
2023-05-04T10:27:54.476Z,3.27
2023-05-04T10:28:54.485Z,3.98
2023-05-04T10:29:54.436Z,3.53
2023-05-04T10:30:54.435Z,2.75
2023-05-04T10:31:54.439Z,2.47
2023-05-04T10:32:54.555Z,1.89
2023-05-04T10:33:54.473Z,2.15
2023-05-04T10:34:56.195Z,2.20
2023-05-04T10:35:54.516Z,2.22
2023-05-04T10:36:54.423Z,1.72
2023-05-04T10:37:54.625Z,1.69
2023-05-04T10:38:54.460Z,1.72
2023-05-04T10:39:54.392Z,2.39
2023-05-04T10:40:54.347Z,2.59
2023-05-04T10:41:54.369Z,2.95
2023-05-04T10:42:54.336Z,3.16
2023-05-04T10:43:54.364Z,2.87
2023-05-04T10:44:54.317Z,1.83
2023-05-04T10:45:54.355Z,1.96
2023-05-04T10:46:54.865Z,2.75
2023-05-04T10:47:54.365Z,2.84
2023-05-04T10:48:54.347Z,2.79
2023-05-04T10:49:54.296Z,2.11
2023-05-04T10:50:54.981Z,1.94
2023-05-04T10:51:54.270Z,2.05
2023-05-04T10:52:54.385Z,1.99
2023-05-04T10:53:55.073Z,2.30
2023-05-04T10:54:54.263Z,1.65
2023-05-04T10:55:54.299Z,1.89
2023-05-04T10:56:54.376Z,1.42
2023-05-04T10:57:54.278Z,1.52
2023-05-04T10:58:54.243Z,1.95
2023-05-04T10:59:54.221Z,2.20
2023-05-04T11:00:54.257Z,2.64
2023-05-04T11:01:54.210Z,3.07
2023-05-04T11:02:54.231Z,2.98
2023-05-04T11:03:54.275Z,2.37
2023-05-04T11:04:54.182Z,2.01
2023-05-04T11:05:54.293Z,2.36
2023-05-04T11:06:54.177Z,2.47
2023-05-04T11:07:54.159Z,2.95
2023-05-04T11:08:54.273Z,3.35
2023-05-04T11:09:54.154Z,3.27
2023-05-04T11:10:54.199Z,2.62
2023-05-04T11:11:54.156Z,2.83
2023-05-04T11:12:54.186Z,3.08
2023-05-04T11:13:54.149Z,2.80
2023-05-04T11:14:54.107Z,2.65
2023-05-04T11:15:54.099Z,2.81
2023-05-04T11:16:54.193Z,3.24
2023-05-04T11:17:54.137Z,3.51
2023-05-04T11:18:54.145Z,2.90
2023-05-04T11:19:54.110Z,2.40
2023-05-04T11:20:54.104Z,3.00
2023-05-04T11:21:54.133Z,3.33
2023-05-04T11:22:54.122Z,3.90
2023-05-04T11:23:54.490Z,4.50
2023-05-04T11:25:02.746Z,4.57
2023-05-04T11:25:55.098Z,4.36
2023-05-04T11:26:54.075Z,4.24
2023-05-04T11:27:54.057Z,4.20
2023-05-04T11:28:54.065Z,4.59
2023-05-04T11:29:54.019Z,5.59
2023-05-04T11:30:56.181Z,6.68
2023-05-04T11:31:54.181Z,7.44
2023-05-04T11:32:54.132Z,7.52
2023-05-04T11:33:54.001Z,6.67
2023-05-04T11:34:54.000Z,6.26
2023-05-04T11:35:54.005Z,5.89
2023-05-04T11:36:53.973Z,5.46
2023-05-04T11:37:53.965Z,4.85
2023-05-04T11:38:54.487Z,3.98
2023-05-04T11:39:53.977Z,4.22
2023-05-04T11:40:53.967Z,3.95
2023-05-04T11:41:53.949Z,3.65
2023-05-04T11:42:55.511Z,3.75
2023-05-04T11:43:54.498Z,3.67
2023-05-04T11:44:53.959Z,3.37
2023-05-04T11:45:53.943Z,3.32
2023-05-04T11:46:53.963Z,2.77
2023-05-04T11:47:53.978Z,2.50
2023-05-04T11:48:54.015Z,2.30
2023-05-04T11:49:53.891Z,2.55
2023-05-04T11:50:53.925Z,2.45
2023-05-04T11:51:53.873Z,2.44
2023-05-04T11:52:53.859Z,2.65
2023-05-04T11:53:53.908Z,2.57
2023-05-04T11:54:55.653Z,2.06
2023-05-04T11:55:53.964Z,2.04
2023-05-04T11:56:53.827Z,2.20
2023-05-04T11:57:53.840Z,2.21
2023-05-04T11:58:53.848Z,2.72
2023-05-04T11:59:53.827Z,2.10
2023-05-04T12:00:55.840Z,2.25
2023-05-04T12:01:53.795Z,2.56
2023-05-04T12:02:53.899Z,2.59
2023-05-04T12:03:54.469Z,2.90
2023-05-04T12:04:53.810Z,3.06
2023-05-04T12:05:53.801Z,3.21
2023-05-04T12:06:53.755Z,3.77
2023-05-04T12:07:53.754Z,4.21
2023-05-04T12:08:53.746Z,4.50
2023-05-04T12:09:53.747Z,4.83
2023-05-04T12:10:53.745Z,4.65
2023-05-04T12:11:53.734Z,4.12
2023-05-04T12:12:53.782Z,3.79
2023-05-04T12:13:53.725Z,3.98
2023-05-04T12:14:54.050Z,4.54
2023-05-04T12:15:53.729Z,5.65
2023-05-04T12:16:53.713Z,5.09
2023-05-04T12:17:53.721Z,5.24
2023-05-04T12:18:53.708Z,4.80
2023-05-04T12:19:53.732Z,4.54
2023-05-04T12:20:53.700Z,4.83
2023-05-04T12:21:53.728Z,5.48
2023-05-04T12:22:53.726Z,6.13
2023-05-04T12:23:53.762Z,6.42
2023-05-04T12:24:53.776Z,6.70
2023-05-04T12:25:58.039Z,6.97
2023-05-04T12:26:53.800Z,7.00
2023-05-04T12:27:53.766Z,7.07
2023-05-04T12:28:53.769Z,6.86
2023-05-04T12:29:53.763Z,6.64
2023-05-04T12:30:53.818Z,6.02
2023-05-04T12:31:53.799Z,5.81
2023-05-04T12:32:53.844Z,6.67
2023-05-04T12:33:53.752Z,6.86
2023-05-04T12:34:53.758Z,6.17
2023-05-04T12:35:53.724Z,4.21
2023-05-04T12:36:53.745Z,3.62
2023-05-04T12:37:53.745Z,3.44
2023-05-04T12:38:53.726Z,3.02
2023-05-04T12:39:53.698Z,3.14
2023-05-04T12:40:53.672Z,3.10
2023-05-04T12:41:53.679Z,2.94
2023-05-04T12:42:53.695Z,2.31
2023-05-04T12:43:53.650Z,2.24
2023-05-04T12:44:53.675Z,2.07
2023-05-04T12:45:53.651Z,1.87
2023-05-04T12:46:53.689Z,2.04
2023-05-04T12:47:53.703Z,2.59
2023-05-04T12:48:53.653Z,2.88
2023-05-04T12:49:53.647Z,2.47
2023-05-04T12:50:53.614Z,2.69
2023-05-04T12:51:53.621Z,2.60
2023-05-04T12:52:53.603Z,2.64
2023-05-04T12:53:53.590Z,2.97
2023-05-04T12:54:53.605Z,3.11
2023-05-04T12:55:53.575Z,2.53
2023-05-04T12:56:53.623Z,2.43
2023-05-04T12:57:53.544Z,2.32
2023-05-04T12:58:53.569Z,2.47
2023-05-04T12:59:53.545Z,2.81
2023-05-04T13:00:53.575Z,2.99
2023-05-04T13:01:53.621Z,2.81
2023-05-04T13:02:53.573Z,1.98
2023-05-04T13:03:53.626Z,1.05
2023-05-04T13:04:53.524Z,0.50
2023-05-04T13:05:53.490Z,0.46
2023-05-04T13:06:53.520Z,0.64
2023-05-04T13:07:53.497Z,0.61
2023-05-04T13:08:53.530Z,0.66
2023-05-04T13:09:54.568Z,0.64
2023-05-04T13:10:53.492Z,0.65
2023-05-04T13:11:53.560Z,0.70
2023-05-04T13:12:53.556Z,0.78
2023-05-04T13:13:53.535Z,1.13
2023-05-04T13:14:53.571Z,0.80